Time;durP1;ratioP1;P1;durP2;ratioP2;P2;SDS_P1;SDS_P2;PMS_P1;PMS_P2;Temp;Humidity;BMP_temperature;BMP_pressure;BME280_temperature;BME280_humidity;BME280_pressure;Samples;Min_cycle;Max_cycle;Signal;HPM_P1;HPM_P2
2023/06/24 00:01:17;;;;;;;24.52;22.00;;;;;;;-145.63;61.58;38852.16;5063283;28;20029;-66
2023/06/24 00:03:46;;;;;;;26.10;23.38;;;;;;;-145.63;61.66;38895.19;5062834;28;20217;-66
2023/06/24 00:06:18;;;;;;;27.05;23.23;;;;;;;-145.63;61.58;38875.63;5061833;28;20048;-67
2023/06/24 00:08:45;;;;;;;27.48;22.92;;;;;;;-145.63;61.48;38848.25;5062984;28;20245;-67
2023/06/24 00:11:10;;;;;;;23.05;20.05;;;;;;;-145.63;61.62;38875.63;5063169;28;20045;-67
2023/06/24 00:13:37;;;;;;;21.00;18.90;;;;;;;-145.63;61.70;38887.34;5062874;28;20033;-66
2023/06/24 00:16:02;;;;;;;19.58;17.42;;;;;;;-145.63;61.48;38877.56;5063257;28;20036;-67
2023/06/24 00:18:28;;;;;;;19.52;16.63;;;;;;;-145.63;61.61;38871.72;5061756;28;20321;-67
2023/06/24 00:20:56;;;;;;;16.95;15.30;;;;;;;-145.63;61.52;38858.03;5063059;28;20040;-67
2023/06/24 00:23:25;;;;;;;18.02;16.33;;;;;;;-145.63;61.02;38863.88;5061748;28;20385;-67
2023/06/24 00:25:52;;;;;;;14.55;13.07;;;;;;;-145.63;61.03;38852.16;5062806;28;20033;-66
2023/06/24 00:28:18;;;;;;;15.45;12.95;;;;;;;-145.63;61.01;38859.97;5062876;28;20025;-66
2023/06/24 00:30:44;;;;;;;17.48;14.00;;;;;;;-145.63;60.45;38854.13;5062636;28;20098;-68
2023/06/24 00:33:11;;;;;;;14.23;12.73;;;;;;;-145.63;60.73;38885.41;5062788;28;20025;-66
2023/06/24 00:35:37;;;;;;;13.18;11.77;;;;;;;-145.63;60.11;38879.53;5062702;28;20080;-66
2023/06/24 00:38:03;;;;;;;15.07;10.98;;;;;;;-145.63;59.61;38889.31;5062649;28;20233;-66
2023/06/24 00:40:29;;;;;;;12.50;11.40;;;;;;;-145.63;59.94;38895.19;5062560;28;20044;-68
2023/06/24 00:42:55;;;;;;;14.35;12.68;;;;;;;-145.63;60.23;38899.09;5062576;28;20025;-67
2023/06/24 00:45:22;;;;;;;13.48;12.18;;;;;;;-145.63;60.14;38946.03;5062855;28;20028;-68
2023/06/24 00:47:48;;;;;;;16.45;11.40;;;;;;;-145.63;60.39;38899.09;5062374;28;20025;-68
2023/06/24 00:50:15;;;;;;;11.40;10.35;;;;;;;-145.63;59.40;38914.72;5062602;28;20229;-68
2023/06/24 00:52:42;;;;;;;11.55;10.52;;;;;;;-145.63;59.35;38914.72;5062353;28;20032;-67
2023/06/24 00:55:15;;;;;;;11.15;10.15;;;;;;;-145.63;59.17;38897.13;5062769;28;20053;-67
2023/06/24 00:57:44;;;;;;;12.20;11.10;;;;;;;-145.63;59.71;38934.28;5062651;28;20032;-66
2023/06/24 01:00:16;;;;;;;11.65;10.43;;;;;;;-145.63;58.97;38908.88;5064252;28;20039;-66
2023/06/24 01:02:42;;;;;;;11.90;10.77;;;;;;;-145.63;59.27;38906.91;5067864;28;20052;-66
2023/06/24 01:05:11;;;;;;;11.68;10.48;;;;;;;-145.63;59.29;38901.03;5061458;28;20172;-66
2023/06/24 01:07:41;;;;;;;12.30;10.95;;;;;;;-145.63;60.23;38973.41;5062320;28;20045;-66
2023/06/24 01:10:08;;;;;;;11.60;10.50;;;;;;;-145.63;59.74;38875.63;5062686;28;20100;-66
2023/06/24 01:12:35;;;;;;;12.50;11.23;;;;;;;-145.63;60.08;38940.16;5062541;28;20100;-66
2023/06/24 01:15:03;;;;;;;11.88;10.68;;;;;;;-145.63;58.84;38928.44;5063270;28;20036;-66
2023/06/24 01:17:48;;;;;;;11.13;10.10;;;;;;;-145.63;58.56;38949.94;5066192;28;20082;-67
2023/06/24 01:20:23;;;;;;;12.40;11.02;;;;;;;-145.63;59.15;38918.66;5066514;28;20040;-66
2023/06/24 01:23:06;;;;;;;9.93;9.02;;;;;;;-145.63;58.29;38914.72;5065771;28;20108;-67
2023/06/24 01:26:09;;;;;;;7.85;7.15;;;;;;;-145.63;57.30;38928.44;5065974;28;20029;-66
2023/06/24 01:29:12;;;;;;;8.15;7.35;;;;;;;-145.63;57.67;38953.84;5065687;28;20029;-67
2023/06/24 01:31:51;;;;;;;7.25;6.63;;;;;;;-145.63;58.36;38994.91;5065876;28;20043;-67
2023/06/24 01:34:29;;;;;;;6.20;4.53;;;;;;;-145.63;55.86;38969.50;5065692;28;20033;-67
2023/06/24 01:37:07;;;;;;;6.97;5.15;;;;;;;-145.63;57.07;38903.00;5065832;28;20065;-66
2023/06/24 01:39:38;;;;;;;9.27;5.55;;;;;;;-145.63;57.43;38924.50;5045775;28;20048;-66
2023/06/24 01:42:08;;;;;;;5.88;4.70;;;;;;;-145.63;57.77;38953.84;5062978;28;20025;-67
2023/06/24 01:44:35;;;;;;;5.45;4.90;;;;;;;-145.63;56.97;38953.84;5065482;28;20049;-68
2023/06/24 01:47:04;;;;;;;6.57;4.93;;;;;;;-145.63;57.24;38930.38;5065373;28;20305;-67
2023/06/24 01:49:31;;;;;;;4.13;3.83;;;;;;;-145.63;56.71;38938.19;5064255;28;20033;-68
2023/06/24 01:52:00;;;;;;;5.53;4.15;;;;;;;-145.63;57.30;38977.31;5065536;28;20033;-68
2023/06/24 01:54:28;;;;;;;4.50;3.80;;;;;;;-145.63;56.15;38930.38;5045333;28;20341;-67
2023/06/24 01:56:57;;;;;;;5.60;3.20;;;;;;;-145.63;56.92;38951.88;5060780;28;20029;-68
2023/06/24 01:59:25;;;;;;;4.25;2.78;;;;;;;-145.63;56.06;38932.34;5065243;28;20025;-67
2023/06/24 02:01:52;;;;;;;3.72;3.15;;;;;;;-145.63;56.51;38930.38;5065111;28;20062;-68
2023/06/24 02:04:18;;;;;;;3.78;2.90;;;;;;;-145.63;55.49;38949.94;5065113;28;20028;-67
2023/06/24 02:06:45;;;;;;;3.80;3.30;;;;;;;-145.63;55.51;38904.97;5064765;28;20041;-67
2023/06/24 02:09:12;;;;;;;5.80;3.40;;;;;;;-145.63;55.38;38973.41;5064763;28;20040;-66
2023/06/24 02:11:39;;;;;;;4.00;3.70;;;;;;;-145.63;55.78;38942.13;5064792;28;20317;-67
2023/06/24 02:14:06;;;;;;;6.13;4.15;;;;;;;-145.63;55.80;38928.44;5063727;28;20225;-67
2023/06/24 02:16:35;;;;;;;5.90;3.92;;;;;;;-145.63;56.51;38148.22;5064778;28;20037;-66
2023/06/24 02:19:03;;;;;;;3.35;3.05;;;;;;;-145.63;56.60;38926.47;5064774;28;20051;-67
2023/06/24 02:21:29;;;;;;;4.03;3.72;;;;;;;-145.63;56.97;38946.03;5044962;28;20037;-66
2023/06/24 02:23:56;;;;;;;3.33;2.95;;;;;;;-145.63;55.52;38942.13;5075877;28;20259;-66
2023/06/24 02:26:23;;;;;;;3.55;3.00;;;;;;;-145.63;55.17;38969.50;5064807;28;20305;-66
2023/06/24 02:28:49;;;;;;;3.60;3.30;;;;;;;-145.63;56.21;38920.59;5064354;28;20032;-67
2023/06/24 02:31:16;;;;;;;3.70;3.25;;;;;;;-145.63;56.32;38899.09;5064563;28;20036;-66
2023/06/24 02:33:42;;;;;;;3.05;2.35;;;;;;;-145.63;55.38;38953.84;5063370;28;20021;-66
2023/06/24 02:36:09;;;;;;;4.53;2.80;;;;;;;-145.63;55.15;38930.38;5064611;28;20064;-66
2023/06/24 02:38:35;;;;;;;3.97;2.80;;;;;;;-145.63;55.57;38942.13;5064448;28;20048;-67
2023/06/24 02:41:04;;;;;;;4.70;2.88;;;;;;;-145.63;55.49;38957.75;5064091;28;20024;-65
2023/06/24 02:43:30;;;;;;;2.83;2.55;;;;;;;-145.63;55.55;38944.06;5064296;28;20198;-66
2023/06/24 02:45:56;;;;;;;3.05;2.28;;;;;;;-145.63;54.44;38969.50;5064133;28;20025;-67
2023/06/24 02:48:22;;;;;;;2.30;2.10;;;;;;;-145.63;54.71;38930.38;5064159;28;20028;-67
2023/06/24 02:50:48;;;;;;;2.35;1.85;;;;;;;-145.63;54.56;38949.94;5064037;28;20029;-67
2023/06/24 02:53:15;;;;;;;3.45;2.47;;;;;;;-145.63;54.87;38914.72;5064403;28;20040;-66
2023/06/24 02:55:42;;;;;;;6.28;1.80;;;;;;;-145.63;55.41;38973.41;5063079;28;20416;-67
2023/06/24 02:58:09;;;;;;;2.42;1.52;;;;;;;-145.63;54.54;38940.16;5064419;28;20078;-67
2023/06/24 03:00:36;;;;;;;2.28;2.03;;;;;;;-145.63;54.94;38957.75;5064159;28;20024;-66
2023/06/24 03:03:04;;;;;;;2.00;1.60;;;;;;;-145.63;55.22;38932.34;5064007;28;20329;-66
2023/06/24 03:05:32;;;;;;;4.60;1.67;;;;;;;-145.63;55.48;38969.50;5064023;28;20036;-66
2023/06/24 03:07:58;;;;;;;2.15;1.58;;;;;;;-145.63;54.82;38949.94;5064023;28;20057;-66
2023/06/24 03:10:25;;;;;;;4.90;1.55;;;;;;;-145.63;54.91;38971.44;5064003;28;20051;-66
2023/06/24 03:12:51;;;;;;;2.38;1.40;;;;;;;-145.63;54.64;38973.41;5062711;28;20098;-66
2023/06/24 03:15:17;;;;;;;1.50;1.40;;;;;;;-145.63;54.44;38989.03;5063825;28;20025;-67
2023/06/24 03:17:43;;;;;;;6.20;1.73;;;;;;;-145.63;55.01;39024.25;5063664;28;20056;-67
2023/06/24 03:20:08;;;;;;;2.13;1.38;;;;;;;-145.63;54.10;38991.00;5063756;28;20029;-66
2023/06/24 03:22:35;;;;;;;1.83;1.52;;;;;;;-145.63;54.02;39002.72;5063674;28;20052;-67
2023/06/24 03:25:01;;;;;;;1.60;1.50;;;;;;;-145.63;54.26;38969.50;5063428;28;20212;-66
2023/06/24 03:27:26;;;;;;;2.20;2.00;;;;;;;-145.63;54.43;38961.66;5063666;28;20021;-67
2023/06/24 03:29:52;;;;;;;1.83;1.67;;;;;;;-145.63;54.46;38989.03;5062323;28;20210;-68
2023/06/24 03:32:17;;;;;;;1.80;1.67;;;;;;;-145.63;54.80;38998.81;5063512;28;20043;-67
2023/06/24 03:34:43;;;;;;;2.00;1.50;;;;;;;-145.63;54.02;38967.53;5063532;28;20028;-67
2023/06/24 03:37:08;;;;;;;1.70;1.00;;;;;;;-145.63;54.00;38959.72;5063165;28;20032;-66
2023/06/24 03:39:34;;;;;;;3.22;1.67;;;;;;;-145.63;53.61;38953.84;5063509;28;20024;-67
2023/06/24 03:42:00;;;;;;;1.60;1.30;;;;;;;-145.63;53.71;38985.13;5063277;28;20033;-67
2023/06/24 03:44:26;;;;;;;1.58;1.15;;;;;;;-145.63;54.13;38953.84;5063312;28;20038;-67
2023/06/24 03:46:52;;;;;;;1.92;1.30;;;;;;;-145.63;54.42;38936.25;5063044;28;20035;-67
2023/06/24 03:49:18;;;;;;;3.92;1.67;;;;;;;-145.63;54.29;38965.56;5063239;28;20024;-67
2023/06/24 03:51:43;;;;;;;2.83;1.98;;;;;;;-145.63;54.36;38985.13;5063231;28;20104;-66
2023/06/24 03:54:09;;;;;;;3.50;1.60;;;;;;;-145.63;54.18;38947.97;5063138;28;20340;-67
2023/06/24 03:56:35;;;;;;;1.67;1.58;;;;;;;-145.63;54.70;38967.53;5063123;28;20074;-66
2023/06/24 03:59:00;;;;;;;1.98;1.70;;;;;;;-145.63;54.14;38844.34;5063169;28;20021;-66
2023/06/24 04:01:26;;;;;;;1.50;1.40;;;;;;;-145.63;54.16;38961.66;5063150;28;20039;-66
2023/06/24 04:03:51;;;;;;;1.60;1.50;;;;;;;-145.63;54.78;38977.31;5062855;28;20337;-68
2023/06/24 04:06:17;;;;;;;1.33;1.23;;;;;;;-145.63;54.21;38938.19;5062965;28;20025;-68
2023/06/24 04:08:43;;;;;;;1.77;1.40;;;;;;;-145.63;54.36;39018.38;5063202;28;20045;-67
2023/06/24 04:11:08;;;;;;;1.63;1.52;;;;;;;-145.63;54.65;39000.78;5061779;28;20036;-67
2023/06/24 04:13:34;;;;;;;2.42;1.50;;;;;;;-145.63;54.71;38989.03;5063023;28;20033;-68
2023/06/24 04:16:00;;;;;;;1.65;1.40;;;;;;;-145.63;54.11;38998.81;5062335;28;20025;-68
2023/06/24 04:18:25;;;;;;;2.25;1.20;;;;;;;-145.63;54.18;39000.78;5062226;28;20079;-68
2023/06/24 04:20:51;;;;;;;1.20;1.10;;;;;;;-145.63;54.51;38979.28;5061490;28;20037;-67
2023/06/24 04:23:16;;;;;;;1.40;1.30;;;;;;;-145.63;54.43;38924.50;5061428;28;20033;-67
2023/06/24 04:25:42;;;;;;;3.05;1.38;;;;;;;-145.63;54.86;38973.41;5062716;28;20041;-67
2023/06/24 04:28:08;;;;;;;1.35;1.25;;;;;;;-145.63;53.92;38922.56;5063096;28;20084;-67
2023/06/24 04:30:40;;;;;;;2.33;1.40;;;;;;;-145.63;53.65;38959.72;5062837;28;20059;-67
2023/06/24 04:33:06;;;;;;;1.90;1.30;;;;;;;-145.63;53.38;38967.53;5062949;28;20040;-67
2023/06/24 04:35:31;;;;;;;2.85;1.20;;;;;;;-145.63;53.01;38957.75;5062611;28;20029;-68
2023/06/24 04:37:57;;;;;;;1.30;1.15;;;;;;;-145.63;54.03;38949.94;5071299;28;20028;-66
2023/06/24 04:40:23;;;;;;;1.60;1.30;;;;;;;-145.63;53.77;38946.03;5062277;28;20029;-67
2023/06/24 04:42:49;;;;;;;1.35;1.25;;;;;;;-145.63;53.56;38953.84;5070859;28;20286;-67
2023/06/24 04:45:14;;;;;;;1.60;1.23;;;;;;;-145.63;53.05;38953.84;5065551;28;20166;-67
2023/06/24 04:47:40;;;;;;;2.05;1.17;;;;;;;-145.63;53.39;38949.94;5062366;28;20017;-66
2023/06/24 04:50:09;;;;;;;1.30;1.20;;;;;;;-145.63;53.29;38940.16;5063986;28;20032;-65
2023/06/24 04:52:35;;;;;;;1.40;1.30;;;;;;;-145.63;53.64;38961.66;5082669;28;20029;-66
2023/06/24 04:55:00;;;;;;;1.20;1.20;;;;;;;-145.63;53.64;38951.88;5066476;28;20041;-66
2023/06/24 04:57:31;;;;;;;2.15;1.40;;;;;;;-145.63;53.16;38942.13;5065913;28;20029;-66
2023/06/24 04:59:57;;;;;;;3.50;1.17;;;;;;;-145.63;53.31;38985.13;5066277;28;20032;-66
2023/06/24 05:02:23;;;;;;;2.15;1.40;;;;;;;-145.63;53.29;38946.03;5074906;28;20028;-70
2023/06/24 05:04:50;;;;;;;1.67;1.17;;;;;;;-145.63;53.37;39004.69;5081037;28;20036;-67
2023/06/24 05:07:15;;;;;;;1.63;1.40;;;;;;;-145.63;52.81;38918.66;5066081;28;20045;-66
2023/06/24 05:09:41;;;;;;;1.52;1.35;;;;;;;-145.63;52.66;38920.59;5066181;28;20032;-65
2023/06/24 05:12:07;;;;;;;2.65;1.40;;;;;;;-145.63;52.44;38893.22;5068961;28;20051;-67
2023/06/24 05:14:36;;;;;;;2.33;1.33;;;;;;;-145.63;52.73;38903.00;5066107;28;20036;-65
2023/06/24 05:17:05;;;;;;;1.27;1.20;;;;;;;-145.63;52.89;38865.84;5065913;28;20028;-66
2023/06/24 05:19:31;;;;;;;2.53;1.25;;;;;;;-145.63;52.84;38918.66;5066076;28;20037;-67
2023/06/24 05:21:59;;;;;;;3.20;1.40;;;;;;;-145.63;52.66;38926.47;5066142;28;20041;-66
2023/06/24 05:24:25;;;;;;;3.75;1.40;;;;;;;-145.63;52.29;38895.19;5065795;28;20055;-66
2023/06/24 05:26:51;;;;;;;1.77;1.40;;;;;;;-145.63;52.20;38932.34;5065876;28;20029;-66
2023/06/24 05:29:18;;;;;;;2.75;1.30;;;;;;;-145.63;52.50;38891.28;5065681;28;20056;-66
2023/06/24 05:31:43;;;;;;;1.65;1.27;;;;;;;-145.63;52.27;38940.16;5065772;28;20025;-66
2023/06/24 05:34:09;;;;;;;1.58;1.30;;;;;;;-145.63;52.86;38967.53;5068038;28;20067;-66
2023/06/24 05:36:34;;;;;;;2.45;1.50;;;;;;;-145.63;52.45;38955.81;5065044;28;20045;-66
2023/06/24 05:39:01;;;;;;;3.15;1.20;;;;;;;-145.63;52.29;38969.50;5065428;28;20036;-67
2023/06/24 05:41:26;;;;;;;2.05;1.58;;;;;;;-145.63;52.72;38936.25;5065441;28;20060;-66
2023/06/24 05:44:06;;;;;;;1.65;1.52;;;;;;;-145.63;52.55;38953.84;5065287;28;20059;-66
2023/06/24 05:46:31;;;;;;;1.98;1.50;;;;;;;-145.63;52.54;38934.28;5065533;28;20029;-66
2023/06/24 05:48:57;;;;;;;1.88;1.40;;;;;;;-145.63;52.56;38922.56;5065360;28;20090;-67
2023/06/24 05:51:23;;;;;;;1.40;1.30;;;;;;;-145.63;52.74;38930.38;5065386;28;20090;-66
2023/06/24 05:53:48;;;;;;;1.35;1.23;;;;;;;-145.63;52.66;38914.72;5065248;28;20032;-66
2023/06/24 05:56:14;;;;;;;1.67;1.58;;;;;;;-145.63;53.04;38928.44;5064178;28;20357;-67
2023/06/24 05:58:40;;;;;;;1.20;1.10;;;;;;;-145.63;52.25;38947.97;5064957;28;20037;-66
2023/06/24 06:01:07;;;;;;;2.15;1.42;;;;;;;-145.63;52.18;38936.25;5065044;28;20309;-68
2023/06/24 06:03:32;;;;;;;1.67;1.50;;;;;;;-145.63;51.98;38926.47;5065336;28;20047;-66
2023/06/24 06:05:58;;;;;;;2.67;1.40;;;;;;;-145.63;52.08;38944.06;5065180;28;20216;-67
2023/06/24 06:08:23;;;;;;;1.50;1.40;;;;;;;-145.63;52.21;38926.47;5064954;28;20037;-67
2023/06/24 06:10:49;;;;;;;1.50;1.40;;;;;;;-145.63;52.31;38963.63;5064999;28;20033;-67
2023/06/24 06:13:14;;;;;;;2.85;1.38;;;;;;;-145.63;52.34;38981.22;5063897;28;20264;-68
2023/06/24 06:15:40;;;;;;;3.53;1.50;;;;;;;-145.63;51.78;38983.19;5064742;28;20020;-67
2023/06/24 06:18:05;;;;;;;3.85;1.88;;;;;;;-145.63;52.43;38920.59;5064713;28;20028;-67
2023/06/24 06:20:31;;;;;;;2.75;1.65;;;;;;;-145.63;52.22;38912.78;5047019;28;20029;-66
2023/06/24 06:22:57;;;;;;;3.22;1.92;;;;;;;-145.63;52.28;38940.16;5064490;28;20033;-67
2023/06/24 06:25:23;;;;;;;1.83;1.73;;;;;;;-145.63;52.00;38942.13;5064786;28;20191;-67
2023/06/24 06:27:49;;;;;;;4.65;2.17;;;;;;;-145.63;52.24;38949.94;5064600;28;20047;-68
2023/06/24 06:30:15;;;;;;;3.80;2.10;;;;;;;-145.63;52.09;38967.53;5068718;28;20025;-67
2023/06/24 06:32:40;;;;;;;3.03;2.03;;;;;;;-145.63;52.19;38965.56;5064275;28;20171;-66
2023/06/24 06:35:07;;;;;;;4.28;2.50;;;;;;;-145.63;52.13;38946.03;5064619;28;20025;-65
2023/06/24 06:37:33;;;;;;;3.22;2.20;;;;;;;-145.63;52.52;38946.03;5064452;28;20126;-67
2023/06/24 06:39:59;;;;;;;4.13;2.25;;;;;;;-145.63;52.46;38938.19;5064633;28;20029;-68
2023/06/24 06:42:24;;;;;;;5.88;2.10;;;;;;;-145.63;52.32;38926.47;5063362;28;20071;-67
2023/06/24 06:44:50;;;;;;;2.30;1.80;;;;;;;-145.63;51.96;38940.16;5064294;28;20025;-67
2023/06/24 06:47:15;;;;;;;2.80;1.80;;;;;;;-145.63;52.48;38949.94;5064356;28;20063;-67
2023/06/24 06:49:41;;;;;;;2.30;1.88;;;;;;;-145.63;52.94;38918.66;5063340;28;20048;-68
2023/06/24 06:52:06;;;;;;;2.10;1.90;;;;;;;-145.63;52.90;38930.38;5063904;28;20028;-68
2023/06/24 06:54:32;;;;;;;5.75;2.00;;;;;;;-145.63;52.52;38934.28;5064008;28;20059;-68
2023/06/24 06:57:02;;;;;;;4.07;1.88;;;;;;;-145.63;52.52;38928.44;5064109;28;20032;-68
2023/06/24 06:59:27;;;;;;;2.10;1.77;;;;;;;-145.63;52.69;38914.72;5063793;28;20063;-67
2023/06/24 07:01:53;;;;;;;4.07;2.25;;;;;;;-145.63;52.63;38953.84;5062674;28;20029;-65
2023/06/24 07:04:19;;;;;;;4.60;1.73;;;;;;;-145.63;53.07;38914.72;5063851;28;20033;-68
2023/06/24 07:06:44;;;;;;;2.15;1.83;;;;;;;-145.63;52.23;38936.25;5063656;28;20233;-69
2023/06/24 07:09:10;;;;;;;3.65;2.13;;;;;;;-145.63;52.29;38930.38;5063737;28;20048;-67
2023/06/24 07:11:36;;;;;;;2.50;1.95;;;;;;;-145.63;52.27;38912.78;5064033;28;20067;-68
2023/06/24 07:14:01;;;;;;;2.50;1.90;;;;;;;-145.63;52.28;38934.28;5063108;28;20523;-68
2023/06/24 07:16:27;;;;;;;4.18;1.98;;;;;;;-145.63;52.61;38991.00;5063736;28;20036;-69
2023/06/24 07:18:52;;;;;;;2.15;1.80;;;;;;;-145.63;52.80;38922.56;5063741;28;20029;-68
2023/06/24 07:21:18;;;;;;;2.03;1.70;;;;;;;-145.63;52.74;38967.53;5063778;28;20024;-67
2023/06/24 07:23:44;;;;;;;4.43;2.00;;;;;;;-145.63;52.79;38967.53;5063376;28;20244;-70
2023/06/24 07:26:09;;;;;;;2.45;1.90;;;;;;;-145.63;52.50;38957.75;5063789;28;20264;-67
2023/06/24 07:28:35;;;;;;;2.17;1.65;;;;;;;-145.63;52.50;38942.13;5063238;28;20027;-67
2023/06/24 07:31:01;;;;;;;2.97;2.10;;;;;;;-145.63;53.47;38891.28;5063358;28;20032;-68
2023/06/24 07:33:26;;;;;;;2.08;1.83;;;;;;;-145.63;52.94;38947.97;5063267;28;20035;-67
2023/06/24 07:35:52;;;;;;;2.35;1.80;;;;;;;-145.63;52.62;38944.06;5063335;28;20029;-67
2023/06/24 07:38:18;;;;;;;1.77;1.67;;;;;;;-145.63;52.95;38947.97;5063224;28;20322;-67
2023/06/24 07:40:43;;;;;;;2.17;1.77;;;;;;;-145.63;52.98;38844.34;5069816;28;20039;-69
2023/06/24 07:43:09;;;;;;;1.75;1.60;;;;;;;-145.63;52.80;38940.16;5076750;28;20043;-67
2023/06/24 07:45:34;;;;;;;1.65;1.50;;;;;;;-145.63;52.88;38899.09;5065110;28;20033;-66
2023/06/24 07:48:00;;;;;;;3.05;1.50;;;;;;;-145.63;52.90;38932.34;5062937;28;20029;-67
2023/06/24 07:50:25;;;;;;;2.85;1.70;;;;;;;-145.63;52.80;38136.50;5061925;28;20032;-67
2023/06/24 07:52:51;;;;;;;1.65;1.55;;;;;;;-145.63;52.48;38904.97;5061784;28;20025;-67
2023/06/24 07:55:16;;;;;;;1.95;1.77;;;;;;;-145.63;52.86;38944.06;5070627;28;20028;-66
2023/06/24 07:57:46;;;;;;;1.52;1.40;;;;;;;-145.63;53.29;38969.50;5082985;28;20301;-67
2023/06/24 08:00:13;;;;;;;1.48;1.38;;;;;;;-145.63;52.96;38932.34;5068282;28;20044;-68
2023/06/24 08:02:38;;;;;;;1.67;1.58;;;;;;;-145.63;52.96;38916.69;5062843;28;20039;-67
2023/06/24 08:05:04;;;;;;;1.80;1.58;;;;;;;-145.63;53.61;38910.81;5061459;28;20037;-68
2023/06/24 08:07:30;;;;;;;3.88;2.20;;;;;;;-145.63;53.40;38858.03;5061805;28;20105;-67
2023/06/24 08:09:55;;;;;;;8.20;1.50;;;;;;;-145.63;53.06;38903.00;5062952;28;20048;-66
2023/06/24 08:12:21;;;;;;;9.95;3.13;;;;;;;-145.63;53.11;38930.38;5062930;28;20029;-67
2023/06/24 08:14:46;;;;;;;5.38;2.50;;;;;;;-145.63;53.38;38969.50;5061544;28;20100;-67
2023/06/24 08:17:12;;;;;;;2.65;1.90;;;;;;;-145.63;52.94;38910.81;5062972;28;20028;-69
2023/06/24 08:19:37;;;;;;;4.80;2.50;;;;;;;-145.63;52.92;38938.19;5062702;28;20029;-66
2023/06/24 08:22:04;;;;;;;2.55;1.80;;;;;;;-145.63;53.07;38920.59;5062976;28;20043;-66
2023/06/24 08:24:29;;;;;;;6.30;3.42;;;;;;;-145.63;53.29;38959.72;5064845;28;20048;-67
2023/06/24 08:26:55;;;;;;;5.80;2.50;;;;;;;-145.63;52.77;38906.91;5066989;28;20029;-66
2023/06/24 08:29:20;;;;;;;3.38;1.77;;;;;;;-145.63;53.17;38957.75;5066980;28;20028;-66
2023/06/24 08:31:46;;;;;;;2.88;1.90;;;;;;;-145.63;53.11;38930.38;5065732;28;20033;-68
2023/06/24 08:34:11;;;;;;;3.10;1.65;;;;;;;-145.63;52.90;38938.19;5066964;28;20029;-68
2023/06/24 08:36:37;;;;;;;3.10;2.25;;;;;;;-145.63;53.01;38910.81;5066852;28;20203;-68
2023/06/24 08:39:03;;;;;;;2.75;1.60;;;;;;;-145.63;52.86;38895.19;5066610;28;20021;-67
2023/06/24 08:41:28;;;;;;;2.28;2.08;;;;;;;-145.63;53.84;38924.50;5066508;28;20025;-68
2023/06/24 08:43:54;;;;;;;4.05;1.90;;;;;;;-145.63;53.76;38922.56;5066465;28;20084;-67
2023/06/24 08:46:21;;;;;;;5.95;2.75;;;;;;;-145.63;54.10;38930.38;5065991;28;20229;-67
2023/06/24 08:48:48;;;;;;;2.72;1.92;;;;;;;-145.63;54.17;38914.72;5065892;28;20052;-67
2023/06/24 08:51:18;;;;;;;2.30;1.80;;;;;;;-145.63;55.02;38926.47;5065984;28;20025;-67
2023/06/24 08:53:45;;;;;;;2.97;1.88;;;;;;;-145.63;54.47;38926.47;5066032;28;20167;-67
2023/06/24 08:56:11;;;;;;;2.17;1.80;;;;;;;-145.63;54.84;38944.06;5066225;28;20039;-66
2023/06/24 08:58:36;;;;;;;1.92;1.77;;;;;;;-145.63;55.06;38932.34;5066471;28;20024;-66
2023/06/24 09:01:03;;;;;;;2.25;1.90;;;;;;;-145.63;54.87;38899.09;5066427;28;20052;-66
2023/06/24 09:03:28;;;;;;;52.28;36.20;;;;;;;-145.63;54.91;38910.81;5066581;28;20037;-67
2023/06/24 09:05:54;;;;;;;12.18;9.35;;;;;;;-145.63;54.62;38934.28;5066030;28;20078;-67
2023/06/24 09:08:22;;;;;;;3.45;2.97;;;;;;;-145.63;54.39;38930.38;5064828;28;20033;-68
2023/06/24 09:10:56;;;;;;;2.28;2.10;;;;;;;-145.63;54.45;38922.56;5065893;28;20045;-69
2023/06/24 09:13:33;;;;;;;2.30;2.20;;;;;;;-145.63;54.70;38926.47;5066596;28;20078;-68
2023/06/24 09:15:59;;;;;;;3.92;2.33;;;;;;;-145.63;54.05;38940.16;5045787;28;20055;-66
2023/06/24 09:18:31;;;;;;;2.38;2.17;;;;;;;-145.63;54.20;38965.56;5061830;28;20297;-68
2023/06/24 09:20:56;;;;;;;3.38;2.50;;;;;;;-145.63;54.44;38949.94;5065866;28;20036;-67
2023/06/24 09:23:26;;;;;;;4.25;2.50;;;;;;;-145.63;54.18;38787.63;5065876;28;20029;-68
2023/06/24 09:25:58;;;;;;;4.50;3.65;;;;;;;-145.63;55.12;38930.38;5064525;28;20032;-67
2023/06/24 09:28:27;;;;;;;;;;;;;;;-145.63;54.50;38912.78;5066224;28;20024;-67
2023/06/24 09:31:09;;;;;;;6.18;5.53;;;;;;;-145.63;54.50;38953.84;5065534;28;19952;-68
2023/06/24 09:33:35;;;;;;;4.82;3.10;;;;;;;-145.63;54.88;38918.66;5064827;28;20028;-67
2023/06/24 09:36:04;;;;;;;3.35;2.70;;;;;;;-145.63;54.99;38936.25;5064989;28;20017;-67
2023/06/24 09:38:38;;;;;;;6.60;5.97;;;;;;;-145.63;54.98;38949.94;5065732;28;20036;-68
2023/06/24 09:41:04;;;;;;;6.13;5.25;;;;;;;-145.63;55.03;38991.00;5065438;28;20074;-67
2023/06/24 09:43:39;;;;;;;4.82;3.13;;;;;;;-145.63;54.96;38942.13;5065816;28;20031;-67
2023/06/24 09:46:06;;;;;;;3.42;3.15;;;;;;;-145.63;55.19;38949.94;5065347;28;20396;-67
2023/06/24 09:48:33;;;;;;;2.85;2.65;;;;;;;-145.63;54.53;38969.50;5065395;28;20225;-66
2023/06/24 09:51:05;;;;;;;3.10;2.90;;;;;;;-145.63;54.99;38957.75;5064094;28;20222;-68
2023/06/24 09:53:32;;;;;;;3.80;3.35;;;;;;;-145.63;55.06;38903.00;5065424;28;20037;-67
2023/06/24 09:56:00;;;;;;;18.67;14.73;;;;;;;-145.63;54.97;38953.84;5065369;28;20037;-66
2023/06/24 09:58:26;;;;;;;5.75;4.70;;;;;;;-145.63;54.40;38947.97;5070103;28;20105;-68
2023/06/24 10:00:54;;;;;;;4.18;3.78;;;;;;;-145.63;54.05;38924.50;5065303;28;20024;-67
2023/06/24 10:03:20;;;;;;;3.90;3.20;;;;;;;-145.63;54.07;38910.81;5065079;28;20062;-67
2023/06/24 10:05:45;;;;;;;3.95;3.65;;;;;;;-145.63;53.92;38928.44;5064795;28;20029;-68
2023/06/24 10:08:13;;;;;;;5.32;4.82;;;;;;;-145.63;54.06;38914.72;5065107;28;20056;-68
2023/06/24 10:10:39;;;;;;;4.55;4.13;;;;;;;-145.63;54.38;38926.47;5064828;28;20055;-68
2023/06/24 10:13:06;;;;;;;5.20;4.13;;;;;;;-145.63;54.13;38963.63;5065013;28;20100;-68
2023/06/24 10:15:32;;;;;;;4.53;4.13;;;;;;;-145.63;53.94;38918.66;5065110;28;20048;-66
2023/06/24 10:18:02;;;;;;;4.68;4.22;;;;;;;-145.63;54.06;38924.50;5064847;28;20040;-66
2023/06/24 10:20:27;;;;;;;4.78;4.38;;;;;;;-145.63;53.93;38903.00;5064878;28;20199;-67
2023/06/24 10:22:53;;;;;;;4.65;4.13;;;;;;;-145.63;53.35;38936.25;5064567;28;20103;-67
2023/06/24 10:25:20;;;;;;;4.68;4.28;;;;;;;-145.63;53.82;38934.28;5064441;28;20028;-66
2023/06/24 10:27:53;;;;;;;5.03;4.35;;;;;;;-145.63;53.82;38934.28;5064382;28;20368;-67
2023/06/24 10:30:20;;;;;;;4.85;4.45;;;;;;;-145.63;54.31;38924.50;5064433;28;20086;-68
2023/06/24 10:32:52;;;;;;;5.18;4.68;;;;;;;-145.63;54.55;38875.63;5064490;28;20088;-68
2023/06/24 10:35:29;;;;;;;4.95;4.40;;;;;;;-145.63;54.61;38938.19;5064702;28;20071;-67
2023/06/24 10:37:59;;;;;;;5.25;4.75;;;;;;;-145.63;54.21;38955.81;5046472;28;20060;-67
2023/06/24 10:40:39;;;;;;;5.70;5.20;;;;;;;-145.63;54.83;38959.72;5064482;28;20032;-69
2023/06/24 10:43:25;;;;;;;6.38;5.78;;;;;;;-145.63;54.57;38899.09;5044748;28;20029;-66
2023/06/24 10:45:52;;;;;;;5.95;5.30;;;;;;;-145.63;54.90;38961.66;5063271;28;20035;-67
2023/06/24 10:48:20;;;;;;;6.25;5.63;;;;;;;-145.63;55.20;38938.19;5063229;28;20028;-68
2023/06/24 10:50:47;;;;;;;7.40;5.75;;;;;;;-145.63;54.81;38969.50;5064042;28;20060;-68
2023/06/24 10:53:13;;;;;;;6.28;5.70;;;;;;;-145.63;55.33;38942.13;5064412;28;20115;-68
2023/06/24 10:55:39;;;;;;;6.63;6.00;;;;;;;-145.63;54.70;38953.84;5064165;28;20321;-67
2023/06/24 10:58:09;;;;;;;6.03;5.40;;;;;;;-145.63;55.01;38922.56;5064559;28;20037;-67
2023/06/24 11:00:35;;;;;;;5.63;5.13;;;;;;;-145.63;54.59;38930.38;5062997;28;20040;-68
2023/06/24 11:03:11;;;;;;;5.95;5.13;;;;;;;-145.63;54.74;38953.84;5064168;28;20106;-67
2023/06/24 11:05:41;;;;;;;6.28;5.60;;;;;;;-145.63;54.61;38944.06;5063948;28;20127;-68
2023/06/24 11:08:07;;;;;;;5.70;5.20;;;;;;;-145.63;54.64;38938.19;5064062;28;20317;-68
2023/06/24 11:10:33;;;;;;;6.22;5.72;;;;;;;-145.63;54.09;38928.44;5064079;28;20071;-67
2023/06/24 11:13:05;;;;;;;6.05;5.55;;;;;;;-145.63;54.40;38965.56;5062350;28;20048;-68
2023/06/24 11:15:32;;;;;;;6.22;5.63;;;;;;;-145.63;54.05;38930.38;5063820;28;20056;-68